createdAt,value
2018-11-14T00:00:33.273Z,1.93
2018-11-14T00:03:03.073Z,2.00
2018-11-14T00:05:31.553Z,1.80
2018-11-14T00:08:00.099Z,1.60
2018-11-14T00:10:29.861Z,1.70
2018-11-14T00:12:58.280Z,2.37
2018-11-14T00:15:27.245Z,2.10
2018-11-14T00:17:56.190Z,3.03
2018-11-14T00:20:24.905Z,2.93
2018-11-14T00:22:53.947Z,3.10
2018-11-14T00:25:22.621Z,4.00
2018-11-14T00:27:51.315Z,2.87
2018-11-14T00:30:22.253Z,2.50
2018-11-14T00:32:50.776Z,1.70
2018-11-14T00:35:19.238Z,1.20
2018-11-14T00:37:48.574Z,1.20
2018-11-14T00:40:18.116Z,1.97
2018-11-14T00:42:47.112Z,1.47
2018-11-14T00:45:17.175Z,1.40
2018-11-14T00:47:47.051Z,1.50
2018-11-14T00:50:16.696Z,1.23
2018-11-14T00:52:45.751Z,1.90
2018-11-14T00:55:15.445Z,1.77
2018-11-14T00:57:45.512Z,1.60
2018-11-14T01:00:17.492Z,1.37
2018-11-14T01:02:47.457Z,1.33
2018-11-14T01:05:16.920Z,1.90
2018-11-14T01:07:45.719Z,1.90
2018-11-14T01:10:16.239Z,2.23
2018-11-14T01:12:46.539Z,1.90
2018-11-14T01:15:16.817Z,1.50
2018-11-14T01:17:45.784Z,1.83
2018-11-14T01:20:15.984Z,2.10
2018-11-14T01:22:44.820Z,1.80
2018-11-14T01:25:14.730Z,1.47
2018-11-14T01:27:44.036Z,1.60
2018-11-14T01:30:16.562Z,1.23
2018-11-14T01:32:45.808Z,1.13
2018-11-14T01:35:15.079Z,1.70
2018-11-14T01:37:43.892Z,1.87
2018-11-14T01:40:15.604Z,1.70
2018-11-14T01:42:45.240Z,1.90
2018-11-14T01:45:14.058Z,2.10
2018-11-14T01:47:43.204Z,2.00
2018-11-14T01:50:12.056Z,1.50
2018-11-14T01:52:40.525Z,1.50
2018-11-14T01:55:11.144Z,1.50
2018-11-14T01:57:39.633Z,1.40
2018-11-14T02:00:11.881Z,1.40
2018-11-14T02:02:41.379Z,1.50
2018-11-14T02:05:10.731Z,1.90
2018-11-14T02:07:39.461Z,1.80
2018-11-14T02:10:13.862Z,1.67
2018-11-14T02:12:43.209Z,1.70
2018-11-14T02:15:14.013Z,1.87
2018-11-14T02:17:42.484Z,2.00
2018-11-14T02:20:12.024Z,1.70
2018-11-14T02:22:41.365Z,1.40
2018-11-14T02:25:11.194Z,1.87
2018-11-14T02:27:39.761Z,1.87
2018-11-14T02:30:10.742Z,2.10
2018-11-14T02:32:39.555Z,1.90
2018-11-14T02:35:08.950Z,1.83
2018-11-14T02:37:37.624Z,1.80
2018-11-14T02:40:08.606Z,1.60
2018-11-14T02:42:37.187Z,1.60
2018-11-14T02:45:06.780Z,1.90
2018-11-14T02:47:35.256Z,2.07
2018-11-14T02:50:04.182Z,2.00
2018-11-14T02:52:32.703Z,1.77
2018-11-14T02:55:01.122Z,1.83
2018-11-14T02:57:29.829Z,2.10
2018-11-14T02:59:58.281Z,2.30
2018-11-14T03:02:26.795Z,2.40
2018-11-14T03:04:55.802Z,2.43
2018-11-14T03:07:24.209Z,2.53
2018-11-14T03:09:52.661Z,2.80
2018-11-14T03:12:21.979Z,2.00
2018-11-14T03:14:50.600Z,2.00
2018-11-14T03:17:19.349Z,3.00
2018-11-14T03:19:47.796Z,2.37
2018-11-14T03:22:16.724Z,2.10
2018-11-14T03:24:45.403Z,2.43
2018-11-14T03:27:14.559Z,2.37
2018-11-14T03:29:43.283Z,2.43
2018-11-14T03:32:12.245Z,1.90
2018-11-14T03:34:41.234Z,1.80
2018-11-14T03:37:09.993Z,2.13
2018-11-14T03:39:38.635Z,2.50
2018-11-14T03:42:07.645Z,2.50
2018-11-14T03:44:36.386Z,1.70
2018-11-14T03:47:05.079Z,2.20
2018-11-14T03:49:34.233Z,2.30
2018-11-14T03:52:02.924Z,1.97
2018-11-14T03:54:31.710Z,1.90
2018-11-14T03:57:01.162Z,2.00
2018-11-14T03:59:29.828Z,1.80
2018-11-14T04:01:58.536Z,2.03
2018-11-14T04:04:26.978Z,1.77
2018-11-14T04:06:55.373Z,2.40
2018-11-14T04:09:24.127Z,2.00
2018-11-14T04:11:52.905Z,1.70
2018-11-14T04:14:21.478Z,2.50
2018-11-14T04:16:49.880Z,2.23
2018-11-14T04:19:18.337Z,2.20
2018-11-14T04:21:47.587Z,2.13
2018-11-14T04:24:16.103Z,2.43
2018-11-14T04:26:44.653Z,2.30
2018-11-14T04:29:13.372Z,2.30
2018-11-14T04:31:43.127Z,2.57
2018-11-14T04:34:11.893Z,2.53
2018-11-14T04:36:40.376Z,3.30
2018-11-14T04:39:10.242Z,2.50
2018-11-14T04:41:39.025Z,2.93
2018-11-14T04:44:07.946Z,3.03
2018-11-14T04:46:36.370Z,2.90
2018-11-14T04:49:05.209Z,3.37
2018-11-14T04:51:33.896Z,3.87
2018-11-14T04:54:02.525Z,4.43
2018-11-14T04:56:31.522Z,4.47
2018-11-14T04:59:00.544Z,5.50
2018-11-14T05:01:29.235Z,4.70
2018-11-14T05:03:57.701Z,5.47
2018-11-14T05:06:27.125Z,5.80
2018-11-14T05:08:55.802Z,4.43
2018-11-14T05:11:25.018Z,4.97
2018-11-14T05:13:53.751Z,5.27
2018-11-14T05:16:22.926Z,5.47
2018-11-14T05:18:51.739Z,6.00
2018-11-14T05:21:20.273Z,5.73
2018-11-14T05:23:49.031Z,6.30
2018-11-14T05:26:17.777Z,6.50
2018-11-14T05:28:46.277Z,6.20
2018-11-14T05:31:15.071Z,6.60
2018-11-14T05:33:43.879Z,7.13
2018-11-14T05:36:12.461Z,6.93
2018-11-14T05:38:40.899Z,6.73
2018-11-14T05:41:09.871Z,6.50
2018-11-14T05:43:38.346Z,6.60
2018-11-14T05:51:54.908Z,7.43
2018-11-14T05:54:23.620Z,7.07
2018-11-14T05:56:52.210Z,6.83
2018-11-14T05:59:20.689Z,7.30
2018-11-14T06:01:49.671Z,7.20
2018-11-14T06:04:18.436Z,7.77
2018-11-14T06:06:47.090Z,8.17
2018-11-14T06:09:16.070Z,7.10
2018-11-14T06:11:44.502Z,6.87
2018-11-14T06:14:13.354Z,7.77
2018-11-14T06:16:41.988Z,8.20
2018-11-14T06:19:12.078Z,7.90
2018-11-14T06:21:40.731Z,7.93
2018-11-14T06:24:09.182Z,8.83
2018-11-14T06:26:37.953Z,10.07
2018-11-14T06:29:07.591Z,10.73
2018-11-14T06:31:36.014Z,13.60
2018-11-14T06:34:04.986Z,13.97
2018-11-14T06:36:34.253Z,12.97
2018-11-14T06:39:03.131Z,14.20
2018-11-14T06:41:31.946Z,12.93
2018-11-14T06:44:01.017Z,13.93
2018-11-14T06:46:29.572Z,14.60
2018-11-14T06:48:58.666Z,14.03
2018-11-14T06:51:27.787Z,14.63
2018-11-14T06:53:56.498Z,15.43
2018-11-14T06:56:24.994Z,15.77
2018-11-14T06:58:53.802Z,17.30
2018-11-14T07:01:22.350Z,16.50
2018-11-14T07:03:50.778Z,18.40
2018-11-14T07:06:19.480Z,17.00
2018-11-14T07:08:48.160Z,17.77
2018-11-14T07:11:17.266Z,20.63
2018-11-14T07:13:45.766Z,20.03
2018-11-14T07:16:14.316Z,19.37
2018-11-14T07:18:43.104Z,18.63
2018-11-14T07:21:11.893Z,20.10
2018-11-14T07:23:41.631Z,19.00
2018-11-14T07:26:10.472Z,18.87
2018-11-14T07:28:39.372Z,18.03
2018-11-14T07:31:08.135Z,18.93
2018-11-14T07:33:36.633Z,18.90
2018-11-14T07:36:05.126Z,18.50
2018-11-14T07:38:42.219Z,19.00
2018-11-14T07:41:15.087Z,19.07
2018-11-14T07:43:44.243Z,19.03
2018-11-14T07:46:13.211Z,18.30
2018-11-14T07:48:42.232Z,20.20
2018-11-14T07:51:10.829Z,18.80
2018-11-14T07:53:40.109Z,20.10
2018-11-14T07:56:09.275Z,18.47
2018-11-14T07:58:37.874Z,17.97
2018-11-14T08:01:06.832Z,20.10
2018-11-14T08:03:36.074Z,19.33
2018-11-14T08:06:04.923Z,19.70
2018-11-14T08:08:33.514Z,19.70
2018-11-14T08:11:02.272Z,20.20
2018-11-14T08:13:31.903Z,20.33
2018-11-14T08:16:01.190Z,19.60
2018-11-14T08:18:30.928Z,20.27
2018-11-14T08:21:01.011Z,19.50
2018-11-14T08:23:29.794Z,19.07
2018-11-14T08:25:58.632Z,19.00
2018-11-14T08:28:27.583Z,20.80
2018-11-14T08:30:56.177Z,20.63
2018-11-14T08:33:25.106Z,19.90
2018-11-14T08:35:53.868Z,19.20
2018-11-14T08:38:22.384Z,19.17
2018-11-14T08:40:51.897Z,20.63
2018-11-14T08:43:20.468Z,19.63
2018-11-14T08:45:49.426Z,22.47
2018-11-14T08:48:18.742Z,20.60
2018-11-14T08:50:47.776Z,21.67
2018-11-14T08:53:16.254Z,20.87
2018-11-14T08:55:44.972Z,21.50
2018-11-14T08:58:14.045Z,20.70
2018-11-14T09:00:42.826Z,21.20
2018-11-14T09:03:13.888Z,20.87
2018-11-14T09:05:42.752Z,21.00
2018-11-14T09:08:12.231Z,23.10
2018-11-14T09:10:41.050Z,20.40
2018-11-14T09:13:14.594Z,19.67
2018-11-14T09:15:43.286Z,20.90
2018-11-14T09:18:11.895Z,21.10
2018-11-14T09:20:41.480Z,20.67
2018-11-14T09:23:10.295Z,20.07
2018-11-14T09:25:39.277Z,20.40
2018-11-14T09:28:08.720Z,25.33
2018-11-14T09:30:37.341Z,25.80
2018-11-14T09:33:06.684Z,32.03
2018-11-14T09:35:35.963Z,27.00
2018-11-14T09:38:04.563Z,28.10
2018-11-14T09:40:33.137Z,33.43
2018-11-14T09:43:02.987Z,26.00
2018-11-14T09:45:31.962Z,24.60
2018-11-14T09:48:00.512Z,23.33
2018-11-14T09:50:30.248Z,24.73
2018-11-14T09:53:00.607Z,23.33
2018-11-14T09:55:29.045Z,28.43
2018-11-14T09:57:57.825Z,28.70
2018-11-14T10:00:28.011Z,26.13
2018-11-14T10:03:01.506Z,27.10
2018-11-14T10:05:30.309Z,23.37
2018-11-14T10:08:01.684Z,21.97
2018-11-14T10:10:30.060Z,25.10
2018-11-14T10:12:58.519Z,24.57
2018-11-14T10:15:27.604Z,23.93
2018-11-14T10:17:56.197Z,24.07
2018-11-14T10:20:25.735Z,25.93
2018-11-14T10:22:54.624Z,23.20
2018-11-14T10:25:23.097Z,22.67
2018-11-14T10:27:51.734Z,22.80
2018-11-14T10:30:22.056Z,24.10
2018-11-14T10:32:51.599Z,22.67
2018-11-14T10:35:20.208Z,21.63
2018-11-14T10:37:49.020Z,25.03
2018-11-14T10:40:20.094Z,23.27
2018-11-14T10:42:48.850Z,24.00
2018-11-14T10:45:18.876Z,24.50
2018-11-14T10:47:47.377Z,23.77
2018-11-14T10:50:18.883Z,25.33
2018-11-14T10:52:48.164Z,25.47
2018-11-14T10:55:17.392Z,23.77
2018-11-14T10:57:45.962Z,26.60
2018-11-14T11:00:25.911Z,24.97
2018-11-14T11:03:00.363Z,38.37
2018-11-14T11:05:34.429Z,25.70
2018-11-14T11:08:10.550Z,23.13
2018-11-14T11:10:44.673Z,24.93
2018-11-14T11:13:18.449Z,24.77
2018-11-14T11:15:52.365Z,23.53
2018-11-14T11:18:25.334Z,24.13
2018-11-14T11:20:55.051Z,22.30
2018-11-14T11:23:24.368Z,24.60
2018-11-14T11:25:53.254Z,24.07
2018-11-14T11:28:22.212Z,21.80
2018-11-14T11:30:51.341Z,22.50
2018-11-14T11:33:19.840Z,26.00
2018-11-14T11:35:48.255Z,22.73
2018-11-14T11:38:16.824Z,24.40
2018-11-14T11:40:46.001Z,22.77
2018-11-14T11:43:14.874Z,21.97
2018-11-14T11:45:43.877Z,21.80
2018-11-14T11:48:12.352Z,31.07
2018-11-14T11:50:41.439Z,25.03
2018-11-14T11:53:10.101Z,20.60
2018-11-14T11:55:38.774Z,20.60
2018-11-14T11:58:07.986Z,29.10
2018-11-14T12:00:36.537Z,20.90
2018-11-14T12:03:05.561Z,22.27
2018-11-14T12:05:35.111Z,19.57
2018-11-14T12:08:03.777Z,20.47
2018-11-14T12:10:32.557Z,19.13
2018-11-14T12:13:01.206Z,18.93
2018-11-14T12:15:29.716Z,20.70
2018-11-14T12:17:58.451Z,19.37
2018-11-14T12:20:27.386Z,20.10
2018-11-14T12:22:55.811Z,20.70
2018-11-14T12:25:24.287Z,19.27
2018-11-14T12:27:53.055Z,22.97
2018-11-14T12:30:21.915Z,22.13
2018-11-14T12:32:51.390Z,18.73
2018-11-14T12:35:20.000Z,18.30
2018-11-14T12:37:49.048Z,18.40
2018-11-14T12:40:17.849Z,18.40
2018-11-14T12:42:46.700Z,17.00
2018-11-14T12:45:16.758Z,16.37
2018-11-14T12:47:45.565Z,19.43
2018-11-14T12:50:14.651Z,18.43
2018-11-14T12:52:43.638Z,19.13
2018-11-14T12:55:15.122Z,19.33
2018-11-14T12:57:44.164Z,19.87
2018-11-14T13:00:15.072Z,19.70
2018-11-14T13:02:44.466Z,19.47
2018-11-14T13:05:13.946Z,19.53
2018-11-14T13:07:42.846Z,20.60
2018-11-14T13:10:13.715Z,20.37
2018-11-14T13:12:42.891Z,19.60
2018-11-14T13:15:13.659Z,18.93
2018-11-14T13:17:43.218Z,19.67
2018-11-14T13:20:14.614Z,20.37
2018-11-14T13:22:44.105Z,20.50
2018-11-14T13:25:13.816Z,20.23
2018-11-14T13:27:43.622Z,20.57
2018-11-14T13:30:14.718Z,19.40
2018-11-14T13:32:43.994Z,19.33
2018-11-14T13:35:14.846Z,20.40
2018-11-14T13:37:43.882Z,19.77
2018-11-14T13:40:12.710Z,19.03
2018-11-14T13:42:41.523Z,18.23
2018-11-14T13:45:11.871Z,19.60
2018-11-14T13:47:41.292Z,19.10
2018-11-14T13:50:13.488Z,17.47
2018-11-14T13:52:42.139Z,19.97
2018-11-14T13:55:13.415Z,21.20
2018-11-14T13:57:43.261Z,19.23
2018-11-14T14:00:12.949Z,19.60
2018-11-14T14:02:42.506Z,22.57
2018-11-14T14:05:13.563Z,19.70
2018-11-14T14:07:42.240Z,20.23
2018-11-14T14:10:12.650Z,18.87
2018-11-14T14:12:42.238Z,20.90
2018-11-14T14:15:13.766Z,20.40
2018-11-14T14:17:44.514Z,19.50
2018-11-14T14:20:13.969Z,20.17
2018-11-14T14:22:43.127Z,20.97
2018-11-14T14:25:14.308Z,21.53
2018-11-14T14:27:42.900Z,20.60
2018-11-14T14:30:14.519Z,19.07
2018-11-14T14:32:44.008Z,21.07
2018-11-14T14:35:13.572Z,19.03
2018-11-14T14:37:42.354Z,22.07
2018-11-14T14:40:13.339Z,21.10
2018-11-14T14:42:42.576Z,20.50
2018-11-14T14:45:12.311Z,19.90
2018-11-14T14:47:41.755Z,18.60
2018-11-14T14:50:12.419Z,17.33
2018-11-14T14:52:41.266Z,18.10
2018-11-14T14:55:14.936Z,20.73
2018-11-14T14:57:45.120Z,20.67
2018-11-14T15:00:15.464Z,21.63
2018-11-14T15:02:44.382Z,18.33
2018-11-14T15:05:13.834Z,18.57
2018-11-14T15:07:42.497Z,18.10
2018-11-14T15:10:13.997Z,21.27
2018-11-14T15:12:42.776Z,19.47
2018-11-14T15:15:11.858Z,21.97
2018-11-14T15:17:40.765Z,18.67
2018-11-14T15:20:13.812Z,18.97
2018-11-14T15:22:42.887Z,18.10
2018-11-14T15:25:14.749Z,25.90
2018-11-14T15:27:43.942Z,28.87
2018-11-14T15:30:16.748Z,61.13
2018-11-14T15:32:45.365Z,30.57
2018-11-14T15:35:14.236Z,36.13
2018-11-14T15:37:42.834Z,42.53
2018-11-14T15:40:14.653Z,25.90
2018-11-14T15:42:43.626Z,22.70
2018-11-14T15:45:16.894Z,24.97
2018-11-14T15:47:45.592Z,30.23
2018-11-14T15:50:16.683Z,22.93
2018-11-14T15:52:46.768Z,22.13
2018-11-14T15:55:16.383Z,20.20
2018-11-14T15:57:45.324Z,20.53
2018-11-14T16:00:16.559Z,21.03
2018-11-14T16:02:45.187Z,20.00
2018-11-14T16:05:16.289Z,20.63
2018-11-14T16:07:47.360Z,19.63
2018-11-14T16:10:18.047Z,19.50
2018-11-14T16:12:47.096Z,19.67
2018-11-14T16:15:17.118Z,22.00
2018-11-14T16:17:45.630Z,22.37
2018-11-14T16:20:15.587Z,20.73
2018-11-14T16:22:44.382Z,18.47
2018-11-14T16:25:14.268Z,20.10
2018-11-14T16:27:44.102Z,18.00
2018-11-14T16:30:15.406Z,18.83
2018-11-14T16:32:45.153Z,22.63
2018-11-14T16:35:14.034Z,21.77
2018-11-14T16:37:43.170Z,20.20
2018-11-14T16:40:19.999Z,24.50
2018-11-14T16:42:49.353Z,24.70
2018-11-14T16:45:18.943Z,22.67
2018-11-14T16:47:48.162Z,25.30
2018-11-14T16:50:18.734Z,24.33
2018-11-14T16:52:47.791Z,26.67
2018-11-14T16:55:18.517Z,24.73
2018-11-14T16:57:48.381Z,23.37
2018-11-14T17:00:30.176Z,26.00
2018-11-14T17:02:59.022Z,25.23
2018-11-14T17:05:29.048Z,24.47
2018-11-14T17:07:57.612Z,25.10
2018-11-14T17:10:26.285Z,23.60
2018-11-14T17:12:57.296Z,22.33
2018-11-14T17:15:26.644Z,25.00
2018-11-14T17:17:56.670Z,25.93
2018-11-14T17:20:26.609Z,24.97
2018-11-14T17:22:55.694Z,24.50
2018-11-14T17:25:24.562Z,24.80
2018-11-14T17:27:53.526Z,25.77
2018-11-14T17:30:25.634Z,23.60
2018-11-14T17:32:54.914Z,23.47
2018-11-14T17:35:24.717Z,25.77
2018-11-14T17:37:54.190Z,24.90
2018-11-14T17:40:25.357Z,24.80
2018-11-14T17:42:54.637Z,25.13
2018-11-14T17:45:27.864Z,27.97
2018-11-14T17:47:56.943Z,25.10
2018-11-14T17:50:27.013Z,28.13
2018-11-14T17:52:56.320Z,26.00
2018-11-14T17:55:25.443Z,28.40
2018-11-14T17:57:54.349Z,29.97
2018-11-14T18:00:30.940Z,27.47
2018-11-14T18:03:00.756Z,27.50
2018-11-14T18:05:30.399Z,25.80
2018-11-14T18:07:59.152Z,27.70
2018-11-14T18:10:28.810Z,26.37
2018-11-14T18:12:58.452Z,27.20
2018-11-14T18:15:27.032Z,53.20
2018-11-14T18:17:56.255Z,58.90
2018-11-14T18:20:29.946Z,43.67
2018-11-14T18:22:59.318Z,36.30
2018-11-14T18:25:28.073Z,33.07
2018-11-14T18:27:56.904Z,32.57
2018-11-14T18:30:26.369Z,28.57
2018-11-14T18:32:55.975Z,28.17
2018-11-14T18:35:25.141Z,30.23
2018-11-14T18:37:54.669Z,26.73
2018-11-14T18:40:25.233Z,28.40
2018-11-14T18:42:54.444Z,30.57
2018-11-14T18:45:26.060Z,28.97
2018-11-14T18:47:57.135Z,27.60
2018-11-14T18:50:27.216Z,29.00
2018-11-14T18:52:56.344Z,28.33
2018-11-14T18:55:26.816Z,28.60
2018-11-14T18:57:56.348Z,27.63
2018-11-14T19:00:27.705Z,27.37
2018-11-14T19:02:56.788Z,26.57
2018-11-14T19:05:26.112Z,28.43
2018-11-14T19:07:55.771Z,26.90
2018-11-14T19:10:27.140Z,28.70
2018-11-14T19:12:56.255Z,28.20
2018-11-14T19:15:30.765Z,29.47
2018-11-14T19:18:00.194Z,29.83
2018-11-14T19:20:31.978Z,28.97
2018-11-14T19:23:01.870Z,31.33
2018-11-14T19:25:33.362Z,30.90
2018-11-14T19:28:07.965Z,32.87
2018-11-14T19:30:38.223Z,31.70
2018-11-14T19:33:07.094Z,39.60
2018-11-14T19:35:36.174Z,35.87
2018-11-14T19:38:05.040Z,31.87
2018-11-14T19:40:35.682Z,30.37
2018-11-14T19:43:09.786Z,30.93
2018-11-14T19:45:39.919Z,29.40
2018-11-14T19:48:10.128Z,33.13
2018-11-14T19:50:39.055Z,31.40
2018-11-14T19:53:08.078Z,28.30
2018-11-14T19:55:37.320Z,29.23
2018-11-14T19:58:07.050Z,29.73
2018-11-14T20:00:39.074Z,28.53
2018-11-14T20:03:08.672Z,26.63
2018-11-14T20:05:39.367Z,27.43
2018-11-14T20:08:08.383Z,27.97
2018-11-14T20:10:37.873Z,30.07
2018-11-14T20:13:07.357Z,25.70
2018-11-14T20:15:38.204Z,27.23
2018-11-14T20:18:08.880Z,28.60
2018-11-14T20:20:39.385Z,29.90
2018-11-14T20:23:09.108Z,29.77
2018-11-14T20:25:38.147Z,26.80
2018-11-14T20:28:08.190Z,25.23
2018-11-14T20:30:39.053Z,28.03
2018-11-14T20:33:11.265Z,27.07
2018-11-14T20:35:40.223Z,26.70
2018-11-14T20:38:09.437Z,27.13
2018-11-14T20:40:40.165Z,25.30
2018-11-14T20:43:09.268Z,25.10
2018-11-14T20:45:39.438Z,26.83
2018-11-14T20:48:09.714Z,26.30
2018-11-14T20:50:39.658Z,25.67
2018-11-14T20:53:08.847Z,28.50
2018-11-14T20:55:40.626Z,25.60
2018-11-14T20:58:10.053Z,27.07
2018-11-14T21:00:39.735Z,26.67
2018-11-14T21:03:09.433Z,25.80
2018-11-14T21:05:38.041Z,26.00
2018-11-14T21:08:06.858Z,25.37
2018-11-14T21:10:35.807Z,26.90
2018-11-14T21:13:04.873Z,25.63
2018-11-14T21:15:35.406Z,25.10
2018-11-14T21:18:04.442Z,26.50
2018-11-14T21:20:33.265Z,25.27
2018-11-14T21:23:01.880Z,24.40
2018-11-14T21:25:30.830Z,24.50
2018-11-14T21:28:00.340Z,25.70
2018-11-14T21:30:30.702Z,27.33
2018-11-14T21:33:02.705Z,25.90
2018-11-14T21:35:33.940Z,27.40
2018-11-14T21:38:05.858Z,23.00
2018-11-14T21:40:34.651Z,25.67
2018-11-14T21:43:05.603Z,26.27
2018-11-14T21:45:34.914Z,26.77
2018-11-14T21:48:09.139Z,25.50
2018-11-14T21:50:38.908Z,26.17
2018-11-14T21:53:08.222Z,25.03
2018-11-14T21:55:36.966Z,25.70
2018-11-14T21:58:05.504Z,27.13
2018-11-14T22:00:35.953Z,27.40
2018-11-14T22:03:05.219Z,27.63
2018-11-14T22:05:34.304Z,28.70
2018-11-14T22:08:03.902Z,25.40
2018-11-14T22:10:33.330Z,22.70
2018-11-14T22:13:02.375Z,27.20
2018-11-14T22:15:32.396Z,29.80
2018-11-14T22:18:02.011Z,27.23
2018-11-14T22:20:31.211Z,25.97
2018-11-14T22:22:59.694Z,24.50
2018-11-14T22:25:29.335Z,23.83
2018-11-14T22:27:59.388Z,23.93
2018-11-14T22:30:30.183Z,25.30
2018-11-14T22:32:59.062Z,25.27
2018-11-14T22:35:29.019Z,23.47
2018-11-14T22:37:57.888Z,22.37
2018-11-14T22:40:28.105Z,24.20
2018-11-14T22:42:56.748Z,26.27
2018-11-14T22:45:26.828Z,22.80
2018-11-14T22:47:55.302Z,23.23
2018-11-14T22:50:24.840Z,23.33
2018-11-14T22:52:54.645Z,21.60
2018-11-14T22:55:24.896Z,20.33
2018-11-14T22:57:54.308Z,21.43
2018-11-14T23:00:32.908Z,19.97
2018-11-14T23:03:02.975Z,22.17
2018-11-14T23:05:31.649Z,21.50
2018-11-14T23:08:01.203Z,20.50
2018-11-14T23:10:30.082Z,20.57
2018-11-14T23:12:59.078Z,20.20
2018-11-14T23:15:27.615Z,20.47
2018-11-14T23:17:56.090Z,21.00
2018-11-14T23:20:25.080Z,19.93
2018-11-14T23:22:54.600Z,21.47
2018-11-14T23:25:23.610Z,19.57
2018-11-14T23:27:53.868Z,19.73
2018-11-14T23:30:23.433Z,19.70
2018-11-14T23:32:52.830Z,20.07
2018-11-14T23:35:22.762Z,20.03
2018-11-14T23:37:52.566Z,19.60
2018-11-14T23:40:21.484Z,19.70
2018-11-14T23:42:50.433Z,20.50
2018-11-14T23:45:19.874Z,18.27
2018-11-14T23:47:49.141Z,20.37
2018-11-14T23:50:19.566Z,20.13
2018-11-14T23:52:49.103Z,21.20
2018-11-14T23:55:18.738Z,19.03
2018-11-14T23:57:47.483Z,21.43
